createdAt,value
2022-11-14T00:01:08.814Z,10.40
2022-11-14T00:03:36.404Z,15.13
2022-11-14T00:06:07.160Z,10.33
2022-11-14T00:08:35.014Z,10.93
2022-11-14T00:11:02.748Z,10.10
2022-11-14T00:13:30.333Z,12.02
2022-11-14T00:15:59.381Z,10.27
2022-11-14T00:18:27.251Z,10.55
2022-11-14T00:20:55.317Z,11.40
2022-11-14T00:23:23.201Z,12.57
2022-11-14T00:25:50.868Z,13.77
2022-11-14T00:28:18.453Z,12.07
2022-11-14T00:30:48.180Z,12.82
2022-11-14T00:33:20.547Z,12.40
2022-11-14T00:35:53.132Z,16.42
2022-11-14T00:38:20.868Z,13.88
2022-11-14T00:40:49.521Z,15.70
2022-11-14T00:43:17.079Z,14.38
2022-11-14T00:45:45.132Z,15.80
2022-11-14T00:48:12.824Z,15.52
2022-11-14T00:50:42.331Z,21.20
2022-11-14T00:53:09.965Z,22.57
2022-11-14T00:55:37.679Z,29.52
2022-11-14T00:58:05.314Z,25.15
2022-11-14T01:00:32.937Z,27.20
2022-11-14T01:03:00.850Z,26.57
2022-11-14T01:05:28.945Z,30.63
2022-11-14T01:07:57.908Z,31.80
2022-11-14T01:10:25.963Z,34.50
2022-11-14T01:12:53.592Z,36.40
2022-11-14T01:15:21.577Z,33.47
2022-11-14T01:17:49.179Z,31.02
2022-11-14T01:20:17.350Z,32.78
2022-11-14T01:22:45.102Z,33.03
2022-11-14T01:25:14.283Z,34.87
2022-11-14T01:27:41.851Z,40.42
2022-11-14T01:30:10.263Z,42.80
2022-11-14T01:32:38.167Z,42.65
2022-11-14T01:35:06.186Z,42.15
2022-11-14T01:37:33.846Z,34.53
2022-11-14T01:40:01.526Z,34.45
2022-11-14T01:42:30.828Z,34.67
2022-11-14T01:44:58.450Z,44.22
2022-11-14T01:47:30.489Z,45.07
2022-11-14T01:50:01.998Z,42.72
2022-11-14T01:52:34.630Z,40.33
2022-11-14T01:55:04.176Z,39.30
2022-11-14T01:57:36.059Z,42.00
2022-11-14T02:00:08.380Z,40.78
2022-11-14T02:02:36.665Z,38.33
2022-11-14T02:05:09.266Z,41.03
2022-11-14T02:07:40.231Z,44.53
2022-11-14T02:10:10.301Z,44.88
2022-11-14T02:12:39.679Z,44.15
2022-11-14T02:15:09.681Z,42.95
2022-11-14T02:17:37.251Z,43.90
2022-11-14T02:20:19.240Z,44.17
2022-11-14T02:22:46.878Z,42.05
2022-11-14T02:25:17.993Z,43.35
2022-11-14T02:27:45.695Z,42.83
2022-11-14T02:30:16.229Z,42.00
2022-11-14T02:33:09.987Z,41.75
2022-11-14T02:35:32.798Z,40.22
2022-11-14T02:38:00.396Z,39.83
2022-11-14T02:40:27.975Z,37.58
2022-11-14T02:42:55.537Z,38.38
2022-11-14T02:45:23.643Z,38.33
2022-11-14T02:47:51.410Z,40.92
2022-11-14T02:50:19.289Z,38.45
2022-11-14T02:52:48.321Z,38.85
2022-11-14T02:55:16.037Z,40.67
2022-11-14T02:57:43.624Z,40.77
2022-11-14T03:00:15.152Z,41.17
2022-11-14T03:02:43.307Z,40.40
2022-11-14T03:05:11.181Z,38.75
2022-11-14T03:07:39.139Z,39.92
2022-11-14T03:10:09.726Z,37.03
2022-11-14T03:12:38.331Z,35.87
2022-11-14T03:15:08.141Z,37.53
2022-11-14T03:17:36.088Z,39.20
2022-11-14T03:20:03.664Z,36.78
2022-11-14T03:22:31.428Z,37.63
2022-11-14T03:24:59.005Z,40.27
2022-11-14T03:27:27.949Z,37.88
2022-11-14T03:29:55.544Z,37.67
2022-11-14T03:32:23.239Z,38.47
2022-11-14T03:34:50.807Z,36.63
2022-11-14T03:37:18.373Z,37.17
2022-11-14T03:39:45.929Z,34.58
2022-11-14T03:42:13.526Z,35.10
2022-11-14T03:44:43.128Z,35.33
2022-11-14T03:47:11.271Z,35.57
2022-11-14T03:49:39.081Z,35.30
2022-11-14T03:52:06.627Z,34.00
2022-11-14T03:54:34.173Z,33.22
2022-11-14T03:57:01.908Z,34.60
2022-11-14T03:59:30.677Z,35.03
2022-11-14T04:01:59.793Z,35.85
2022-11-14T04:04:27.334Z,36.95
2022-11-14T04:06:55.066Z,38.40
2022-11-14T04:09:22.705Z,36.85
2022-11-14T04:11:50.250Z,39.15
2022-11-14T04:14:17.910Z,40.47
2022-11-14T04:16:45.753Z,40.05
2022-11-14T04:19:15.900Z,40.35
2022-11-14T04:21:43.504Z,38.10
2022-11-14T04:24:11.447Z,38.30
2022-11-14T04:26:39.523Z,38.78
2022-11-14T04:29:07.250Z,39.80
2022-11-14T04:31:34.810Z,41.05
2022-11-14T04:34:02.409Z,39.05
2022-11-14T04:36:31.337Z,41.85
2022-11-14T04:38:59.181Z,39.58
2022-11-14T04:41:26.778Z,41.40
2022-11-14T04:43:54.353Z,42.28
2022-11-14T04:46:22.186Z,40.25
2022-11-14T04:48:50.092Z,38.45
2022-11-14T04:51:17.965Z,40.43
2022-11-14T04:53:47.198Z,35.53
2022-11-14T04:56:14.759Z,38.60
2022-11-14T04:58:42.358Z,39.10
2022-11-14T05:01:10.953Z,40.15
2022-11-14T05:03:39.266Z,38.63
2022-11-14T05:06:07.408Z,37.22
2022-11-14T05:08:36.783Z,38.17
2022-11-14T05:11:05.915Z,39.35
2022-11-14T05:13:33.550Z,36.50
2022-11-14T05:16:01.963Z,39.17
2022-11-14T05:18:29.729Z,37.28
2022-11-14T05:21:07.092Z,35.20
2022-11-14T05:23:34.687Z,34.67
2022-11-14T05:26:03.541Z,36.40
2022-11-14T05:28:32.793Z,33.90
2022-11-14T05:31:04.324Z,35.28
2022-11-14T05:33:32.150Z,36.67
2022-11-14T05:36:03.432Z,35.85
2022-11-14T05:38:31.496Z,36.58
2022-11-14T05:40:59.790Z,37.55
2022-11-14T05:43:30.781Z,39.03
2022-11-14T05:46:03.033Z,38.05
2022-11-14T05:48:32.269Z,35.95
2022-11-14T05:51:01.756Z,39.63
2022-11-14T05:53:30.921Z,38.00
2022-11-14T05:56:01.453Z,41.80
2022-11-14T05:58:29.411Z,42.67
2022-11-14T06:01:05.080Z,44.78
2022-11-14T06:03:34.257Z,45.13
2022-11-14T06:06:03.235Z,46.40
2022-11-14T06:08:31.667Z,41.05
2022-11-14T06:11:04.062Z,45.33
2022-11-14T06:13:32.333Z,44.05
2022-11-14T06:16:01.665Z,44.58
2022-11-14T06:18:33.205Z,45.67
2022-11-14T06:21:01.593Z,41.33
2022-11-14T06:23:29.733Z,43.73
2022-11-14T06:26:01.336Z,40.80
2022-11-14T06:28:29.368Z,45.03
2022-11-14T06:31:00.893Z,42.43
2022-11-14T06:33:31.101Z,45.13
2022-11-14T06:36:00.118Z,41.22
2022-11-14T06:38:28.019Z,42.40
2022-11-14T06:41:03.554Z,43.67
2022-11-14T06:43:34.523Z,42.90
2022-11-14T06:46:02.484Z,43.00
2022-11-14T06:48:32.508Z,42.45
2022-11-14T06:51:01.592Z,46.10
2022-11-14T06:53:31.340Z,47.08
2022-11-14T06:56:00.935Z,45.78
2022-11-14T06:58:29.423Z,44.30
2022-11-14T07:00:57.417Z,46.40
2022-11-14T07:03:25.116Z,47.85
2022-11-14T07:05:54.082Z,57.03
2022-11-14T07:08:21.642Z,51.83
2022-11-14T07:10:49.353Z,58.07
2022-11-14T07:13:16.917Z,46.42
2022-11-14T07:15:51.118Z,47.53
2022-11-14T07:18:18.868Z,50.20
2022-11-14T07:20:46.496Z,51.20
2022-11-14T07:23:21.459Z,48.45
2022-11-14T07:25:50.368Z,47.15
2022-11-14T07:28:17.946Z,100.80
2022-11-14T07:30:45.762Z,59.00
2022-11-14T07:33:13.328Z,47.58
2022-11-14T07:35:40.926Z,45.67
2022-11-14T07:38:08.507Z,42.50
2022-11-14T07:40:37.459Z,42.63
2022-11-14T07:43:05.126Z,42.90
2022-11-14T07:45:32.856Z,46.40
2022-11-14T07:48:02.785Z,41.93
2022-11-14T07:50:31.164Z,52.20
2022-11-14T07:52:58.973Z,43.35
2022-11-14T07:55:26.641Z,40.72
2022-11-14T07:57:56.581Z,42.28
2022-11-14T08:00:24.134Z,38.88
2022-11-14T08:02:51.979Z,37.95
2022-11-14T08:05:19.659Z,38.65
2022-11-14T08:07:48.289Z,37.33
2022-11-14T08:10:16.320Z,38.67
2022-11-14T08:12:43.917Z,35.85
2022-11-14T08:15:14.472Z,36.15
2022-11-14T08:17:42.055Z,31.17
2022-11-14T08:20:11.401Z,29.25
2022-11-14T08:22:39.662Z,28.50
2022-11-14T08:25:08.197Z,26.93
2022-11-14T08:27:35.776Z,26.13
2022-11-14T08:30:03.387Z,26.75
2022-11-14T08:32:32.500Z,27.10
2022-11-14T08:35:00.139Z,29.55
2022-11-14T08:37:27.901Z,31.92
2022-11-14T08:39:55.465Z,33.42
2022-11-14T08:42:23.104Z,36.28
2022-11-14T08:44:52.116Z,40.30
2022-11-14T08:47:19.961Z,43.38
2022-11-14T08:49:49.245Z,41.75
2022-11-14T08:52:17.105Z,40.17
2022-11-14T08:54:44.943Z,37.88
2022-11-14T08:57:15.197Z,39.40
2022-11-14T08:59:42.973Z,39.10
2022-11-14T09:02:11.557Z,36.85
2022-11-14T09:04:39.262Z,37.95
2022-11-14T09:07:08.499Z,38.42
2022-11-14T09:09:36.120Z,38.60
2022-11-14T09:12:03.920Z,38.88
2022-11-14T09:14:31.710Z,35.28
2022-11-14T09:17:04.577Z,38.17
2022-11-14T09:19:33.551Z,34.17
2022-11-14T09:22:01.215Z,33.78
2022-11-14T09:24:30.220Z,32.80
2022-11-14T09:26:57.789Z,32.70
2022-11-14T09:29:25.443Z,31.85
2022-11-14T09:31:55.001Z,31.20
2022-11-14T09:34:22.659Z,31.33
2022-11-14T09:36:50.232Z,28.15
2022-11-14T09:39:18.227Z,26.38
2022-11-14T09:41:58.300Z,25.90
2022-11-14T09:44:38.996Z,27.67
2022-11-14T09:47:16.647Z,25.50
2022-11-14T09:49:51.747Z,24.90
2022-11-14T09:52:30.028Z,20.10
2022-11-14T09:55:00.334Z,28.60
2022-11-14T09:57:30.370Z,26.83
2022-11-14T09:59:58.085Z,21.98
2022-11-14T10:02:36.399Z,19.25
2022-11-14T10:05:28.052Z,18.23
2022-11-14T10:08:07.256Z,20.17
2022-11-14T10:10:50.786Z,17.63
2022-11-14T10:13:32.074Z,17.92
2022-11-14T10:16:08.284Z,17.10
2022-11-14T10:18:49.428Z,17.92
2022-11-14T10:21:31.521Z,14.70
2022-11-14T10:24:06.669Z,15.30
2022-11-14T10:26:39.189Z,13.93
2022-11-14T10:29:41.214Z,15.38
2022-11-14T10:32:20.972Z,14.77
2022-11-14T10:34:55.321Z,14.02
2022-11-14T10:37:28.037Z,13.00
2022-11-14T10:39:58.778Z,13.95
2022-11-14T10:42:33.466Z,14.25
2022-11-14T10:45:08.222Z,15.38
2022-11-14T10:47:41.395Z,14.35
2022-11-14T10:50:19.481Z,15.45
2022-11-14T10:52:49.022Z,13.50
2022-11-14T10:55:18.185Z,13.57
2022-11-14T10:57:47.132Z,12.23
2022-11-14T11:00:18.999Z,13.70
2022-11-14T11:02:52.797Z,17.08
2022-11-14T11:05:23.540Z,18.25
2022-11-14T11:08:36.135Z,12.43
2022-11-14T11:11:17.614Z,14.23
2022-11-14T11:13:54.008Z,12.60
2022-11-14T11:16:25.886Z,13.95
2022-11-14T11:18:53.709Z,12.98
2022-11-14T11:21:23.829Z,12.52
2022-11-14T11:23:53.418Z,11.80
2022-11-14T11:26:24.374Z,12.93
2022-11-14T11:29:08.796Z,12.95
2022-11-14T11:31:55.032Z,13.18
2022-11-14T11:34:26.217Z,12.77
2022-11-14T11:36:59.881Z,12.23
2022-11-14T11:39:31.044Z,11.55
2022-11-14T11:42:10.989Z,11.95
2022-11-14T11:44:44.776Z,16.65
2022-11-14T11:47:16.109Z,14.45
2022-11-14T11:49:52.923Z,14.20
2022-11-14T11:52:33.055Z,13.75
2022-11-14T11:55:06.224Z,15.73
2022-11-14T11:57:40.191Z,15.05
2022-11-14T12:00:15.983Z,15.68
2022-11-14T12:02:50.037Z,16.48
2022-11-14T12:05:26.030Z,16.30
2022-11-14T12:08:00.838Z,14.38
2022-11-14T12:10:33.007Z,13.90
2022-11-14T12:13:37.820Z,12.73
2022-11-14T12:16:16.243Z,13.60
2022-11-14T12:19:13.556Z,14.25
2022-11-14T12:22:04.248Z,15.95
2022-11-14T12:24:51.934Z,14.55
2022-11-14T12:27:44.407Z,15.45
2022-11-14T12:30:16.774Z,16.27
2022-11-14T12:32:48.765Z,17.10
2022-11-14T12:35:23.346Z,19.35
2022-11-14T12:37:55.850Z,20.60
2022-11-14T12:40:31.915Z,17.95
2022-11-14T12:43:01.429Z,19.88
2022-11-14T12:45:59.750Z,21.98
2022-11-14T12:48:33.084Z,21.88
2022-11-14T12:51:03.232Z,20.70
2022-11-14T12:53:42.140Z,20.90
2022-11-14T12:56:41.326Z,22.70
2022-11-14T12:59:40.212Z,24.03
2022-11-14T13:02:37.228Z,22.20
2022-11-14T13:05:23.294Z,18.40
2022-11-14T13:08:06.165Z,20.93
2022-11-14T13:10:38.543Z,18.70
2022-11-14T13:13:27.865Z,20.85
2022-11-14T13:16:14.472Z,26.33
2022-11-14T13:19:10.896Z,22.83
2022-11-14T13:21:48.312Z,23.25
2022-11-14T13:24:19.528Z,20.07
2022-11-14T13:26:52.925Z,21.17
2022-11-14T13:29:57.701Z,19.10
2022-11-14T13:32:54.064Z,17.33
2022-11-14T13:35:31.875Z,18.60
2022-11-14T13:38:17.022Z,17.67
2022-11-14T13:40:54.449Z,19.75
2022-11-14T13:43:32.032Z,19.27
2022-11-14T13:46:08.165Z,19.60
2022-11-14T13:49:10.525Z,21.52
2022-11-14T13:51:43.950Z,22.63
2022-11-14T13:54:17.412Z,19.67
2022-11-14T13:57:01.769Z,22.27
2022-11-14T13:59:49.347Z,20.73
2022-11-14T14:02:47.590Z,22.17
2022-11-14T14:05:24.954Z,23.98
2022-11-14T14:08:06.730Z,24.95
2022-11-14T14:10:42.992Z,23.37
2022-11-14T14:13:25.857Z,24.63
2022-11-14T14:16:04.533Z,24.90
2022-11-14T14:18:45.944Z,24.52
2022-11-14T14:21:28.843Z,24.77
2022-11-14T14:24:06.141Z,22.88
2022-11-14T14:26:44.664Z,23.92
2022-11-14T14:29:25.112Z,23.67
2022-11-14T14:31:52.828Z,24.48
2022-11-14T14:34:22.864Z,25.02
2022-11-14T14:36:52.078Z,22.92
2022-11-14T14:39:21.252Z,24.92
2022-11-14T14:41:50.277Z,22.60
2022-11-14T14:44:24.337Z,23.35
2022-11-14T14:46:53.385Z,23.65
2022-11-14T14:49:23.558Z,23.30
2022-11-14T14:51:55.748Z,23.45
2022-11-14T14:54:27.241Z,24.13
2022-11-14T14:56:59.917Z,22.92
2022-11-14T14:59:31.111Z,25.10
2022-11-14T15:01:59.273Z,23.80
2022-11-14T15:04:29.319Z,24.58
2022-11-14T15:06:58.407Z,24.90
2022-11-14T15:09:27.809Z,24.73
2022-11-14T15:11:58.887Z,26.85
2022-11-14T15:14:30.986Z,26.83
2022-11-14T15:17:00.367Z,26.93
2022-11-14T15:19:35.727Z,25.85
2022-11-14T15:22:05.140Z,24.23
2022-11-14T15:24:33.095Z,27.23
2022-11-14T15:27:05.358Z,29.30
2022-11-14T15:29:34.571Z,24.92
2022-11-14T15:32:03.653Z,24.15
2022-11-14T15:34:33.233Z,23.90
2022-11-14T15:37:21.350Z,27.08
2022-11-14T15:39:49.409Z,24.48
2022-11-14T15:42:20.966Z,24.77
2022-11-14T15:44:50.568Z,23.48
2022-11-14T15:47:23.879Z,24.95
2022-11-14T15:50:03.524Z,23.83
2022-11-14T15:52:36.047Z,24.60
2022-11-14T15:55:04.599Z,24.70
2022-11-14T15:57:33.157Z,23.20
2022-11-14T16:00:03.464Z,24.93
2022-11-14T16:02:35.497Z,24.17
2022-11-14T16:05:05.184Z,24.52
2022-11-14T16:07:33.196Z,23.37
2022-11-14T16:10:00.873Z,24.52
2022-11-14T16:12:28.472Z,23.88
2022-11-14T16:14:56.157Z,23.50
2022-11-14T16:17:25.144Z,22.97
2022-11-14T16:19:52.671Z,23.57
2022-11-14T16:22:20.228Z,23.13
2022-11-14T16:24:47.792Z,24.65
2022-11-14T16:27:15.396Z,23.27
2022-11-14T16:29:42.957Z,23.20
2022-11-14T16:32:11.765Z,25.40
2022-11-14T16:34:40.692Z,23.92
2022-11-14T16:37:13.034Z,25.35
2022-11-14T16:39:40.691Z,25.67
2022-11-14T16:42:08.785Z,26.13
2022-11-14T16:44:41.190Z,32.42
2022-11-14T16:47:15.299Z,29.23
2022-11-14T16:49:44.202Z,26.50
2022-11-14T16:52:12.885Z,23.15
2022-11-14T16:54:40.448Z,24.33
2022-11-14T16:57:09.034Z,21.98
2022-11-14T16:59:37.630Z,23.10
2022-11-14T17:02:05.637Z,24.70
2022-11-14T17:04:33.293Z,23.92
2022-11-14T17:07:02.248Z,23.80
2022-11-14T17:09:29.937Z,22.50
2022-11-14T17:11:57.476Z,26.73
2022-11-14T17:14:25.265Z,25.92
2022-11-14T17:16:52.880Z,27.95
2022-11-14T17:19:20.569Z,27.20
2022-11-14T17:21:48.983Z,25.27
2022-11-14T17:24:17.885Z,25.55
2022-11-14T17:26:46.470Z,26.38
2022-11-14T17:29:14.021Z,23.40
2022-11-14T17:31:46.686Z,22.50
2022-11-14T17:34:14.729Z,23.23
2022-11-14T17:36:42.725Z,21.65
2022-11-14T17:39:10.532Z,27.83
2022-11-14T17:41:39.632Z,30.95
2022-11-14T17:44:07.370Z,38.33
2022-11-14T17:46:35.029Z,37.88
2022-11-14T17:49:03.077Z,38.33
2022-11-14T17:51:31.189Z,33.37
2022-11-14T17:53:58.750Z,38.33
2022-11-14T17:56:27.377Z,38.65
2022-11-14T17:58:56.273Z,44.35
2022-11-14T18:01:25.999Z,32.05
2022-11-14T18:03:53.720Z,36.35
2022-11-14T18:06:24.213Z,31.13
2022-11-14T18:08:51.920Z,30.83
2022-11-14T18:11:20.415Z,47.63
2022-11-14T18:13:47.980Z,41.95
2022-11-14T18:16:19.552Z,43.05
2022-11-14T18:18:47.407Z,41.47
2022-11-14T18:21:18.248Z,38.40
2022-11-14T18:23:51.800Z,36.53
2022-11-14T18:26:21.010Z,33.50
2022-11-14T18:28:48.608Z,30.45
2022-11-14T18:31:17.495Z,35.90
2022-11-14T18:33:45.348Z,31.95
2022-11-14T18:36:13.451Z,30.08
2022-11-14T18:38:41.834Z,33.78
2022-11-14T18:41:11.236Z,27.90
2022-11-14T18:43:38.879Z,32.30
2022-11-14T18:46:08.336Z,36.22
2022-11-14T18:48:39.113Z,38.87
2022-11-14T18:51:08.249Z,35.22
2022-11-14T18:53:37.169Z,34.10
2022-11-14T18:56:05.570Z,31.60
2022-11-14T18:58:33.371Z,31.27
2022-11-14T19:01:09.735Z,39.50
2022-11-14T19:03:38.869Z,61.63
2022-11-14T19:06:08.350Z,52.03
2022-11-14T19:08:36.143Z,46.93
2022-11-14T19:11:04.463Z,42.65
2022-11-14T19:13:32.470Z,53.10
2022-11-14T19:16:03.961Z,48.17
2022-11-14T19:18:32.820Z,37.40
2022-11-14T19:21:03.698Z,37.90
2022-11-14T19:23:31.726Z,31.42
2022-11-14T19:26:00.819Z,31.80
2022-11-14T19:28:30.297Z,36.00
2022-11-14T19:31:02.217Z,42.40
2022-11-14T19:33:30.297Z,39.55
2022-11-14T19:35:58.606Z,36.22
2022-11-14T19:38:27.733Z,34.17
2022-11-14T19:40:55.954Z,32.85
2022-11-14T19:43:25.980Z,53.03
2022-11-14T19:45:54.711Z,52.70
2022-11-14T19:48:22.442Z,58.70
2022-11-14T19:50:50.136Z,59.88
2022-11-14T19:53:17.729Z,54.25
2022-11-14T19:55:46.678Z,53.90
2022-11-14T19:58:14.338Z,52.88
2022-11-14T20:00:41.977Z,52.88
2022-11-14T20:03:09.781Z,53.28
2022-11-14T20:05:38.474Z,49.08
2022-11-14T20:08:06.922Z,50.45
2022-11-14T20:10:47.482Z,82.90
2022-11-14T20:13:17.076Z,80.10
2022-11-14T20:15:44.910Z,71.28
2022-11-14T20:18:12.707Z,65.00
2022-11-14T20:20:40.570Z,58.87
2022-11-14T20:23:09.283Z,54.55
2022-11-14T20:25:38.299Z,55.60
2022-11-14T20:28:07.992Z,57.17
2022-11-14T20:30:40.744Z,61.03
2022-11-14T20:33:09.149Z,67.75
2022-11-14T20:35:37.812Z,63.83
2022-11-14T20:38:06.281Z,62.58
2022-11-14T20:40:34.835Z,60.75
2022-11-14T20:43:02.738Z,51.90
2022-11-14T20:45:30.581Z,54.33
2022-11-14T20:47:59.917Z,53.17
2022-11-14T20:50:27.745Z,45.67
2022-11-14T20:52:55.627Z,43.83
2022-11-14T20:55:23.429Z,45.42
2022-11-14T20:57:51.205Z,43.65
2022-11-14T21:00:20.488Z,42.20
2022-11-14T21:02:48.963Z,41.35
2022-11-14T21:05:18.389Z,43.63
2022-11-14T21:07:46.069Z,39.15
2022-11-14T21:10:31.442Z,38.43
2022-11-14T21:13:16.752Z,41.33
2022-11-14T21:15:44.610Z,43.53
2022-11-14T21:18:12.274Z,42.13
2022-11-14T21:20:41.394Z,37.90
2022-11-14T21:23:09.221Z,37.30
2022-11-14T21:25:36.874Z,43.08
2022-11-14T21:28:04.718Z,43.80
2022-11-14T21:30:32.667Z,52.08
2022-11-14T21:33:00.255Z,62.42
2022-11-14T21:35:31.534Z,101.03
2022-11-14T21:38:00.482Z,68.45
2022-11-14T21:40:28.093Z,56.28
2022-11-14T21:42:55.961Z,51.22
2022-11-14T21:45:23.533Z,48.42
2022-11-14T21:47:51.097Z,46.15
2022-11-14T21:50:18.859Z,42.95
2022-11-14T21:52:46.465Z,40.20
2022-11-14T21:55:15.402Z,37.15
2022-11-14T21:57:42.961Z,41.67
2022-11-14T22:00:12.008Z,37.63
2022-11-14T22:02:56.969Z,37.00
2022-11-14T22:05:24.860Z,39.22
2022-11-14T22:07:52.523Z,33.88
2022-11-14T22:10:21.422Z,30.02
2022-11-14T22:12:48.997Z,32.30
2022-11-14T22:15:16.691Z,45.60
2022-11-14T22:17:45.256Z,44.08
2022-11-14T22:20:13.105Z,41.55
2022-11-14T22:22:40.670Z,38.63
2022-11-14T22:25:08.616Z,33.17
2022-11-14T22:27:37.497Z,27.23
2022-11-14T22:30:05.770Z,24.35
2022-11-14T22:32:33.364Z,19.38
2022-11-14T22:35:01.104Z,20.15
2022-11-14T22:37:28.796Z,23.02
2022-11-14T22:39:56.325Z,24.20
2022-11-14T22:42:23.873Z,24.27
2022-11-14T22:44:52.793Z,23.63
2022-11-14T22:47:20.377Z,21.10
2022-11-14T22:49:47.949Z,21.42
2022-11-14T22:52:15.485Z,20.23
2022-11-14T22:54:43.214Z,19.38
2022-11-14T22:57:10.849Z,19.48
2022-11-14T22:59:38.385Z,17.30
2022-11-14T23:02:07.583Z,19.80
2022-11-14T23:04:35.149Z,21.23
2022-11-14T23:07:03.786Z,23.90
2022-11-14T23:09:31.425Z,19.05
2022-11-14T23:11:59.068Z,19.95
2022-11-14T23:14:27.836Z,22.73
2022-11-14T23:16:55.396Z,23.17
2022-11-14T23:19:24.418Z,23.15
2022-11-14T23:21:52.013Z,22.27
2022-11-14T23:24:19.660Z,23.25
2022-11-14T23:26:47.228Z,23.13
2022-11-14T23:29:14.978Z,20.57
2022-11-14T23:31:42.681Z,20.80
2022-11-14T23:34:10.352Z,21.65
2022-11-14T23:36:39.349Z,23.13
2022-11-14T23:39:06.955Z,20.40
2022-11-14T23:41:34.518Z,20.42
2022-11-14T23:44:02.292Z,19.65
2022-11-14T23:46:29.959Z,20.57
2022-11-14T23:48:57.559Z,17.45
2022-11-14T23:51:25.261Z,18.85
2022-11-14T23:53:54.221Z,21.17
2022-11-14T23:56:21.793Z,19.47
2022-11-14T23:58:50.355Z,18.63
